Time;durP1;ratioP1;P1;durP2;ratioP2;P2;SDS_P1;SDS_P2;PMS_P1;PMS_P2;Temp;Humidity;BMP_temperature;BMP_pressure;BME280_temperature;BME280_humidity;BME280_pressure;Samples;Min_cycle;Max_cycle;Signal;HPM_P1;HPM_P2
2022/02/17 00:01:36;;;;;;;32.70;13.90;;;;;;;3.33;74.76;99258.80;25108;1315;3026991;-70
2022/02/17 00:04:05;;;;;;;35.60;15.70;;;;;;;3.73;73.08;99253.26;25088;1313;3026702;-67
2022/02/17 00:06:34;;;;;;;31.90;15.10;;;;;;;3.69;73.01;99252.36;25161;1313;3051899;-71
2022/02/17 00:09:03;;;;;;;40.30;17.10;;;;;;;3.64;73.32;99248.41;25157;1313;3026441;-69
2022/02/17 00:11:33;;;;;;;41.20;16.90;;;;;;;3.52;73.74;99247.10;25116;1316;3052223;-72
2022/02/17 00:14:02;;;;;;;34.00;15.40;;;;;;;3.45;74.15;99245.77;25224;1316;3028316;-68
2022/02/17 00:16:31;;;;;;;35.80;17.60;;;;;;;3.27;74.93;99246.20;25103;1313;3026327;-68
2022/02/17 00:19:02;;;;;;;35.40;17.30;;;;;;;3.06;76.07;99243.09;25187;1316;3054020;-69
2022/02/17 00:21:31;;;;;;;32.40;16.40;;;;;;;3.01;76.43;99239.80;25086;1313;3026348;-70
2022/02/17 00:24:00;;;;;;;39.40;16.90;;;;;;;3.42;75.66;99231.16;25174;1313;3026575;-66
2022/02/17 00:26:29;;;;;;;38.70;16.80;;;;;;;3.82;73.96;99227.66;25138;1313;3051346;-67
2022/02/17 00:29:00;;;;;;;41.40;17.80;;;;;;;3.85;73.90;99225.98;25119;1313;3027413;-66
2022/02/17 00:31:29;;;;;;;37.40;17.20;;;;;;;3.69;74.59;99223.95;25145;1316;3029219;-66
2022/02/17 00:33:58;;;;;;;46.90;19.80;;;;;;;3.69;74.41;99220.68;25112;1313;3051259;-69
2022/02/17 00:36:27;;;;;;;39.30;18.90;;;;;;;3.46;75.40;99219.58;25120;1313;3026662;-68
2022/02/17 00:38:57;;;;;;;42.50;16.70;;;;;;;3.31;76.22;99216.98;25111;1316;3049861;-65
2022/02/17 00:41:27;;;;;;;35.30;15.90;;;;;;;3.24;76.49;99220.00;25053;1316;3026871;-68
2022/02/17 00:43:56;;;;;;;33.90;15.30;;;;;;;3.50;75.94;99217.86;25092;1316;3027565;-70
2022/02/17 00:46:27;;;;;;;38.50;15.80;;;;;;;3.78;74.87;99211.68;25142;1315;3028614;-72
2022/02/17 00:48:56;;;;;;;36.10;16.10;;;;;;;3.73;74.93;99209.44;25166;1313;3054529;-65
2022/02/17 00:51:25;;;;;;;37.80;16.60;;;;;;;3.70;75.11;99204.34;25128;1313;3027095;-64
2022/02/17 00:53:54;;;;;;;41.30;19.80;;;;;;;3.52;75.84;99201.71;25045;1315;3051085;-68
2022/02/17 00:56:23;;;;;;;40.90;18.20;;;;;;;3.35;76.59;99203.16;25133;1313;3026808;-67
2022/02/17 00:58:57;;;;;;;46.30;18.00;;;;;;;3.17;77.49;99203.61;25136;1313;3055054;-69
2022/02/17 01:01:28;;;;;;;35.40;16.50;;;;;;;3.20;77.46;99201.27;25138;1316;3028246;-68
2022/02/17 01:03:57;;;;;;;31.10;16.20;;;;;;;3.54;76.42;99194.53;25107;1316;3028250;-68
2022/02/17 01:06:26;;;;;;;37.10;17.00;;;;;;;3.69;75.69;99188.95;25064;1313;3054623;-73
2022/02/17 01:08:56;;;;;;;35.50;16.90;;;;;;;3.61;75.95;99190.64;25132;1313;3026728;-73
2022/02/17 01:11:27;;;;;;;44.80;16.50;;;;;;;3.52;76.09;99188.91;25098;1315;3028257;-69
2022/02/17 01:13:58;;;;;;;36.40;17.70;;;;;;;3.33;76.86;99188.16;25111;1315;3026721;-67
2022/02/17 01:16:27;;;;;;;37.80;17.10;;;;;;;3.22;77.66;99189.45;25127;1315;3027160;-68
2022/02/17 01:18:56;;;;;;;39.70;16.50;;;;;;;3.21;77.65;99188.42;25033;1315;3027091;-68
2022/02/17 01:21:26;;;;;;;31.20;14.60;;;;;;;2.99;78.48;99188.13;25107;1313;3581748;-66
2022/02/17 01:23:54;;;;;;;36.00;16.80;;;;;;;3.57;77.20;99180.75;25038;1315;3051855;-66
2022/02/17 01:26:24;;;;;;;35.40;16.10;;;;;;;3.77;75.89;99185.04;25020;1315;3026464;-70
2022/02/17 01:28:57;;;;;;;39.40;16.10;;;;;;;3.66;76.05;99186.33;25125;1315;3026758;-65
2022/02/17 01:31:29;;;;;;;35.70;16.60;;;;;;;3.60;76.49;99183.75;25090;1315;3027213;-70
2022/02/17 01:34:08;;;;;;;37.80;17.80;;;;;;;3.53;76.56;99177.42;25151;1315;3055522;-64
2022/02/17 01:36:38;;;;;;;38.30;16.10;;;;;;;3.47;76.72;99179.90;25053;1313;3026926;-70
2022/02/17 01:39:07;;;;;;;37.80;17.10;;;;;;;3.21;77.81;99180.13;25110;1313;3026543;-67
2022/02/17 01:41:38;;;;;;;39.90;15.60;;;;;;;3.21;78.17;99182.03;25157;1313;3051353;-69
2022/02/17 01:44:11;;;;;;;36.10;16.10;;;;;;;3.64;76.99;99185.36;25144;1315;3026820;-65
2022/02/17 01:46:41;;;;;;;38.50;16.60;;;;;;;4.03;75.46;99182.16;25108;1315;3026137;-66
2022/02/17 01:49:11;;;;;;;34.60;15.90;;;;;;;3.86;75.68;99184.34;25128;1315;3026838;-66
2022/02/17 01:51:40;;;;;;;36.50;17.20;;;;;;;3.78;75.99;99181.02;25117;1315;3026729;-66
2022/02/17 01:54:10;;;;;;;41.90;17.80;;;;;;;3.73;76.32;99180.85;25121;1315;3026533;-71
2022/02/17 01:56:39;;;;;;;39.70;17.20;;;;;;;3.52;77.18;99179.04;25126;1316;3026429;-64
2022/02/17 01:59:10;;;;;;;38.80;18.60;;;;;;;3.47;77.26;99173.98;25173;1315;3051506;-71
2022/02/17 02:01:46;;;;;;;39.80;17.50;;;;;;;3.38;78.12;99177.08;25045;1316;3067356;-69
2022/02/17 02:04:15;;;;;;;36.70;15.30;;;;;;;3.73;77.40;99174.42;25103;1315;3026409;-72
2022/02/17 02:06:46;;;;;;;41.00;17.20;;;;;;;4.07;76.13;99174.02;25104;1316;3051734;-69
2022/02/17 02:09:17;;;;;;;33.80;16.50;;;;;;;4.00;75.94;99173.09;25093;1315;3026399;-71
2022/02/17 02:12:08;;;;;;;36.90;16.90;;;;;;;3.88;76.72;99179.41;25080;1315;3048351;-69
2022/02/17 02:14:54;;;;;;;42.00;17.60;;;;;;;3.85;76.85;99177.80;25088;1315;3026201;-74
2022/02/17 02:17:28;;;;;;;44.50;20.00;;;;;;;3.54;78.24;99177.91;25143;1316;3054073;-70
2022/02/17 02:20:02;;;;;;;42.70;19.80;;;;;;;3.59;78.29;99171.48;25106;1315;3026418;-69
2022/02/17 02:22:32;;;;;;;38.00;16.20;;;;;;;3.48;78.91;99171.73;25110;1315;3026698;-70
2022/02/17 02:25:03;;;;;;;41.20;17.90;;;;;;;3.94;77.85;99166.22;25109;1316;3027142;-73
2022/02/17 02:27:33;;;;;;;39.10;17.80;;;;;;;4.25;76.43;99162.23;25136;1313;3026477;-66
2022/02/17 02:30:06;;;;;;;41.50;19.10;;;;;;;4.04;77.10;99165.80;25122;1315;3026597;-65
2022/02/17 02:32:36;;;;;;;;;;;;;;;3.90;77.72;99172.59;25155;1315;3055501;-66
2022/02/17 02:35:06;;;;;;;44.80;18.10;;;;;;;3.76;78.32;99166.02;25120;1315;3026595;-70
2022/02/17 02:37:36;;;;;;;42.80;18.60;;;;;;;3.80;78.44;99164.83;25071;1313;3026746;-70
2022/02/17 02:40:06;;;;;;;43.50;18.20;;;;;;;3.69;79.25;99167.33;25106;1316;3027886;-71
2022/02/17 02:42:39;;;;;;;46.80;18.80;;;;;;;4.03;78.62;99161.86;25157;1315;3052402;-67
2022/02/17 02:45:11;;;;;;;44.60;17.30;;;;;;;4.37;77.54;99153.43;25147;1315;3026568;-66
2022/02/17 02:47:41;;;;;;;46.80;18.90;;;;;;;4.44;77.13;99159.41;25093;1316;3028739;-67
2022/02/17 02:50:10;;;;;;;43.80;18.90;;;;;;;4.38;77.20;99154.94;25154;1313;3051859;-65
2022/02/17 02:52:40;;;;;;;53.30;19.30;;;;;;;4.14;78.23;99155.71;25172;1315;3026739;-70
2022/02/17 02:55:10;;;;;;;41.80;19.10;;;;;;;4.11;78.76;99148.05;25115;1314;3026733;-68
2022/02/17 02:57:39;;;;;;;33.90;14.10;;;;;;;3.89;79.45;99150.95;25063;1315;3028992;-66
2022/02/17 03:00:10;;;;;;;31.10;14.90;;;;;;;4.33;78.89;99137.64;25144;1315;3051366;-67
2022/02/17 03:02:40;;;;;;;35.70;15.90;;;;;;;4.76;77.01;99134.85;25156;1313;3026764;-73
2022/02/17 03:05:11;;;;;;;35.00;16.10;;;;;;;4.53;77.35;99129.39;25063;1315;3026989;-66
2022/02/17 03:07:41;;;;;;;35.70;16.00;;;;;;;4.38;77.94;99130.15;25147;1315;3026232;-66
2022/02/17 03:10:19;;;;;;;31.60;14.90;;;;;;;4.21;78.87;99128.59;25103;1315;3054431;-72
2022/02/17 03:12:50;;;;;;;34.60;16.70;;;;;;;4.09;78.81;99123.17;25183;1315;3028169;-69
2022/02/17 03:15:20;;;;;;;25.60;13.50;;;;;;;3.99;79.51;99127.70;25085;1315;3026938;-64
2022/02/17 03:17:51;;;;;;;30.20;14.70;;;;;;;4.44;78.03;99122.13;25066;1314;3050763;-66
2022/02/17 03:20:20;;;;;;;37.50;14.60;;;;;;;4.68;76.93;99118.70;25053;1316;3026658;-67
2022/02/17 03:22:49;;;;;;;30.00;14.20;;;;;;;4.62;76.53;99112.88;25107;1315;3026825;-71
2022/02/17 03:25:19;;;;;;;30.90;15.40;;;;;;;4.54;76.69;99112.49;25152;1314;3051743;-69
2022/02/17 03:27:48;;;;;;;41.80;15.80;;;;;;;4.39;77.37;99105.52;25172;1315;3026818;-68
2022/02/17 03:30:37;;;;;;;42.50;17.50;;;;;;;4.06;78.14;99100.03;25193;1315;3055962;-67
2022/02/17 03:33:16;;;;;;;38.50;18.50;;;;;;;3.98;78.35;99093.42;25102;1315;3051871;-67
2022/02/17 03:35:47;;;;;;;35.60;14.00;;;;;;;3.98;78.10;99095.02;25066;1315;3026267;-69
2022/02/17 03:38:16;;;;;;;37.40;15.50;;;;;;;4.30;77.09;99090.94;25097;1315;3027284;-69
2022/02/17 03:40:49;;;;;;;32.30;15.00;;;;;;;4.41;76.07;99091.55;25048;1315;3027285;-70
2022/02/17 03:43:21;;;;;;;36.80;16.10;;;;;;;4.43;75.64;99082.98;25096;1314;3028195;-69
2022/02/17 03:45:50;;;;;;;33.60;18.00;;;;;;;4.47;75.24;99080.68;25088;1314;3026157;-67
2022/02/17 03:48:19;;;;;;;37.10;17.30;;;;;;;4.31;75.47;99073.92;25092;1315;3026551;-68
2022/02/17 03:50:52;;;;;;;41.80;17.90;;;;;;;3.95;76.76;99069.80;25142;1315;3054351;-68
2022/02/17 03:53:21;;;;;;;39.20;19.20;;;;;;;3.88;77.02;99064.38;25162;1315;3026662;-73
2022/02/17 03:55:52;;;;;;;31.10;15.10;;;;;;;3.69;77.63;99065.78;25060;1314;3052226;-72
2022/02/17 04:01:13;;;;;;;35.10;15.50;;;;;;;4.39;74.50;99060.23;25094;1315;3059342;-64
2022/02/17 04:03:46;;;;;;;38.60;17.80;;;;;;;4.30;74.87;99056.09;25160;1315;3050089;-71
2022/02/17 04:06:16;;;;;;;33.50;15.50;;;;;;;4.09;75.49;99051.91;25126;1314;3028798;-66
2022/02/17 04:08:46;;;;;;;41.90;14.90;;;;;;;3.79;76.19;99050.15;25056;1314;3026524;-67
2022/02/17 04:11:16;;;;;;;40.70;16.30;;;;;;;3.70;76.60;99052.44;25076;1315;3027375;-69
2022/02/17 04:13:49;;;;;;;35.20;16.30;;;;;;;3.38;77.54;99049.33;25129;1315;3026875;-69
2022/02/17 04:16:22;;;;;;;33.30;14.00;;;;;;;3.26;78.42;99046.14;25171;1315;3052415;-67
2022/02/17 04:19:12;;;;;;;31.60;14.00;;;;;;;3.79;77.15;99039.59;25078;1315;3052196;-67
2022/02/17 04:22:20;;;;;;;28.10;14.40;;;;;;;3.90;76.42;99031.88;24963;1319;3058871;-71
2022/02/17 04:24:55;;;;;;;34.10;16.00;;;;;;;3.56;77.54;99034.09;25012;1319;3049331;-66
2022/02/17 04:27:27;;;;;;;34.50;16.50;;;;;;;3.38;78.58;99030.61;25039;1315;3027288;-68
2022/02/17 04:30:06;;;;;;;32.00;16.00;;;;;;;3.45;78.72;99027.23;25113;1315;3051581;-69
2022/02/17 04:32:38;;;;;;;37.70;16.30;;;;;;;3.28;79.20;99022.70;25157;1315;3026825;-72
2022/02/17 04:35:07;;;;;;;26.80;14.50;;;;;;;3.20;80.00;99020.75;25131;1315;3026518;-70
2022/02/17 04:37:37;;;;;;;34.20;15.30;;;;;;;3.58;79.19;99013.39;25154;1315;3026654;-68
2022/02/17 04:40:06;;;;;;;30.10;14.70;;;;;;;3.71;78.05;99005.64;25101;1315;3026844;-67
2022/02/17 04:42:43;;;;;;;34.00;14.60;;;;;;;3.79;78.06;99002.89;25125;1315;3051704;-68
2022/02/17 04:45:15;;;;;;;33.60;16.60;;;;;;;3.72;78.04;99000.22;25108;1315;3026578;-72
2022/02/17 04:47:44;;;;;;;36.90;15.70;;;;;;;3.67;78.54;98990.35;25039;1315;3027059;-67
2022/02/17 04:50:13;;;;;;;39.30;17.30;;;;;;;3.52;78.84;98988.00;25199;1314;3048931;-65
2022/02/17 04:52:42;;;;;;;42.00;14.10;;;;;;;3.47;79.38;98984.73;25178;1315;3026585;-70
2022/02/17 04:55:12;;;;;;;28.80;13.70;;;;;;;3.92;78.15;98980.20;25113;1315;3068517;-68
2022/02/17 04:57:40;;;;;;;26.60;14.10;;;;;;;4.36;76.45;98978.34;25168;1313;3026402;-73
2022/02/17 05:00:13;;;;;;;34.60;15.40;;;;;;;4.43;75.37;98970.39;25139;1316;3051278;-67
2022/02/17 05:02:43;;;;;;;33.40;14.80;;;;;;;4.08;76.32;98971.39;25082;1315;3067034;-68
2022/02/17 05:05:31;;;;;;;33.20;15.00;;;;;;;3.84;77.29;98968.73;25069;1315;3051790;-67
2022/02/17 05:07:59;;;;;;;40.60;15.40;;;;;;;3.69;77.45;98966.38;25129;1313;3025704;-69
2022/02/17 05:10:32;;;;;;;35.10;16.70;;;;;;;3.59;78.23;98964.02;25162;1315;3069252;-68
2022/02/17 05:13:03;;;;;;;31.80;14.50;;;;;;;3.47;78.95;98962.73;25116;1315;3026501;-66
2022/02/17 05:15:33;;;;;;;30.60;14.10;;;;;;;3.74;78.41;98961.68;25186;1314;3026058;-70
2022/02/17 05:18:08;;;;;;;43.40;16.00;;;;;;;4.14;76.69;98953.27;25128;1315;3054872;-69
2022/02/17 05:20:38;;;;;;;28.30;13.80;;;;;;;4.07;76.33;98955.64;25081;1315;3025992;-75
2022/02/17 05:23:26;;;;;;;36.50;17.30;;;;;;;3.93;76.99;98953.79;25057;1313;3049827;-68
2022/02/17 05:26:06;;;;;;;36.70;17.60;;;;;;;3.81;77.64;98951.86;25170;1315;3057284;-68
2022/02/17 05:28:51;;;;;;;40.90;19.00;;;;;;;3.63;78.17;98945.48;25123;1315;3051029;-72
2022/02/17 05:31:30;;;;;;;35.70;16.70;;;;;;;3.63;78.04;98935.80;25150;1315;3071256;-65
2022/02/17 05:34:20;;;;;;;29.50;13.60;;;;;;;3.75;77.44;98927.17;25080;1318;3051876;-69
2022/02/17 05:37:23;;;;;;;30.30;13.70;;;;;;;4.20;75.80;98925.29;25138;1315;3052047;-65
2022/02/17 05:40:11;;;;;;;33.30;15.20;;;;;;;4.19;75.70;98918.73;25060;1315;3055627;-65
2022/02/17 05:42:41;;;;;;;35.70;16.10;;;;;;;4.30;75.32;98910.97;25126;1314;3028015;-67
2022/02/17 05:45:10;;;;;;;34.90;15.50;;;;;;;4.14;75.77;98907.83;25125;1314;3026298;-70
2022/02/17 05:47:41;;;;;;;36.80;15.80;;;;;;;3.98;76.28;98909.24;25117;1315;3054680;-67
2022/02/17 05:50:11;;;;;;;35.50;16.20;;;;;;;3.73;77.26;98915.98;25178;1313;3027401;-71
2022/02/17 05:52:40;;;;;;;34.60;15.80;;;;;;;3.67;77.60;98917.42;25161;1315;3029362;-66
2022/02/17 05:55:10;;;;;;;30.40;13.80;;;;;;;3.49;78.29;98917.30;25145;1314;3026797;-70
2022/02/17 05:57:59;;;;;;;31.90;13.10;;;;;;;3.98;76.57;98915.45;25142;1316;3051471;-68
2022/02/17 06:00:28;;;;;;;32.30;14.40;;;;;;;4.27;75.23;98907.65;25140;1314;3026626;-73
2022/02/17 06:02:57;;;;;;;32.20;14.10;;;;;;;3.98;75.69;98911.64;25122;1315;3026563;-68
2022/02/17 06:05:27;;;;;;;31.70;16.20;;;;;;;3.88;76.02;98902.00;25160;1315;3051348;-71
2022/02/17 06:07:56;;;;;;;37.80;15.70;;;;;;;3.70;76.52;98903.79;25153;1315;3026902;-71
2022/02/17 06:10:26;;;;;;;32.70;15.30;;;;;;;3.39;77.93;98896.26;25138;1315;3026746;-68
2022/02/17 06:12:55;;;;;;;45.10;15.80;;;;;;;3.41;77.93;98894.23;25176;1315;3026108;-66
2022/02/17 06:15:30;;;;;;;29.40;13.20;;;;;;;3.32;77.94;98887.66;25107;1315;3070689;-68
2022/02/17 06:17:59;;;;;;;26.70;13.30;;;;;;;3.58;77.56;98875.20;25120;1315;3026194;-69
2022/02/17 06:20:28;;;;;;;33.90;14.40;;;;;;;3.89;76.06;98873.58;25165;1315;3026624;-67
2022/02/17 06:22:58;;;;;;;36.90;14.80;;;;;;;3.81;76.21;98871.30;25125;1315;3071059;-71
2022/02/17 06:25:27;;;;;;;29.00;13.80;;;;;;;3.86;76.20;98870.38;25124;1315;3030139;-66
2022/02/17 06:27:58;;;;;;;35.40;16.10;;;;;;;3.65;76.51;98861.59;25168;1315;3030276;-67
2022/02/17 06:30:27;;;;;;;35.80;15.80;;;;;;;3.38;77.75;98864.92;25136;1315;3026960;-72
2022/02/17 06:32:59;;;;;;;38.50;17.50;;;;;;;3.57;76.84;98859.14;25145;1315;3026982;-72
2022/02/17 06:35:32;;;;;;;30.90;12.80;;;;;;;3.54;77.07;98860.98;25082;1315;3026340;-69
2022/02/17 06:38:01;;;;;;;28.60;13.70;;;;;;;3.82;76.00;98852.38;25121;1315;3026585;-66
2022/02/17 06:40:31;;;;;;;27.50;13.70;;;;;;;4.10;74.84;98852.88;25157;1315;3027889;-69
2022/02/17 06:43:07;;;;;;;33.50;14.70;;;;;;;3.85;75.11;98847.40;25116;1315;3026342;-69
2022/02/17 06:45:37;;;;;;;31.80;14.50;;;;;;;3.81;75.55;98838.37;25153;1315;3049587;-71
2022/02/17 06:48:07;;;;;;;34.10;15.00;;;;;;;3.64;75.88;98839.09;25181;1315;3026696;-73
2022/02/17 06:50:36;;;;;;;32.40;15.10;;;;;;;3.61;75.51;98828.52;25114;1315;3026593;-70
2022/02/17 06:53:07;;;;;;;35.00;15.30;;;;;;;3.45;75.80;98826.73;25146;1315;3026763;-70
2022/02/17 06:55:36;;;;;;;32.20;15.50;;;;;;;3.44;76.22;98817.92;25069;1315;3027519;-66
2022/02/17 06:58:05;;;;;;;24.00;12.60;;;;;;;3.35;76.89;98818.49;25135;1315;3051397;-73
2022/02/17 07:00:34;;;;;;;28.40;12.00;;;;;;;3.86;75.10;98812.71;25118;1315;3026592;-71
2022/02/17 07:03:06;;;;;;;29.60;13.20;;;;;;;4.11;73.86;98812.16;25130;1315;3026467;-74
2022/02/17 07:05:38;;;;;;;30.30;13.10;;;;;;;3.94;74.48;98813.02;25114;1315;3056262;-72
2022/02/17 07:08:07;;;;;;;31.00;15.20;;;;;;;3.90;74.64;98812.02;25156;1315;3026395;-65
2022/02/17 07:13:29;;;;;;;36.60;15.20;;;;;;;3.66;75.71;98818.23;25137;1315;3053097;-72
2022/02/17 07:15:59;;;;;;;34.40;17.70;;;;;;;3.58;75.53;98815.10;25114;1315;3026947;-66
2022/02/17 07:18:28;;;;;;;25.50;11.30;;;;;;;3.47;76.49;98813.84;25137;1314;3026696;-73
2022/02/17 07:20:59;;;;;;;32.90;13.60;;;;;;;4.06;74.25;98800.54;25118;1313;3055230;-71
2022/02/17 07:23:29;;;;;;;27.00;12.90;;;;;;;4.27;73.45;98797.36;25156;1313;3028421;-72
2022/02/17 07:25:58;;;;;;;30.70;14.90;;;;;;;4.48;72.00;98799.89;25087;1313;3030617;-69
2022/02/17 07:28:27;;;;;;;24.00;12.60;;;;;;;4.27;72.43;98801.02;25182;1313;3026441;-75
2022/02/17 07:30:56;;;;;;;28.60;14.60;;;;;;;4.20;72.74;98801.00;25165;1313;3053376;-73
2022/02/17 07:33:27;;;;;;;33.40;12.90;;;;;;;4.05;73.22;98796.79;25168;1313;3026791;-73
2022/02/17 07:35:57;;;;;;;29.90;14.10;;;;;;;3.99;73.03;98794.98;25154;1315;3027763;-72
2022/02/17 07:38:26;;;;;;;31.80;14.20;;;;;;;3.88;74.08;98795.44;25192;1315;3050589;-65
2022/02/17 07:40:57;;;;;;;32.90;15.10;;;;;;;3.95;73.41;98793.56;25289;1313;3027894;-69
2022/02/17 07:43:27;;;;;;;33.20;15.60;;;;;;;3.97;73.47;98786.05;25264;1315;3026882;-72
2022/02/17 07:46:00;;;;;;;25.90;11.30;;;;;;;3.75;74.15;98790.67;25204;1314;3052693;-70
2022/02/17 07:48:29;;;;;;;32.70;12.70;;;;;;;4.38;72.27;98780.92;25124;1313;3026815;-68
2022/02/17 07:50:58;;;;;;;32.50;13.00;;;;;;;4.64;70.99;98779.37;25152;1313;3026531;-71
2022/02/17 07:53:27;;;;;;;37.30;14.70;;;;;;;4.63;70.83;98782.70;25155;1313;3050943;-70
2022/02/17 07:55:56;;;;;;;31.30;13.60;;;;;;;4.59;71.23;98778.93;25099;1313;3026219;-72
2022/02/17 07:58:25;;;;;;;30.20;13.40;;;;;;;4.61;71.22;98772.23;25150;1313;3055044;-74
2022/02/17 08:00:54;;;;;;;31.10;14.90;;;;;;;4.55;70.91;98773.19;25219;1313;3026734;-72
2022/02/17 08:03:23;;;;;;;35.80;15.80;;;;;;;4.39;71.88;98764.77;25270;1313;3029704;-69
2022/02/17 08:05:52;;;;;;;29.80;14.20;;;;;;;4.37;71.78;98758.62;25446;1310;3053339;-70
2022/02/17 08:08:21;;;;;;;31.90;14.60;;;;;;;4.27;72.45;98756.14;25174;1313;3027209;-72
2022/02/17 08:10:49;;;;;;;36.40;14.50;;;;;;;4.31;72.51;98751.91;25187;1313;3048872;-68
2022/02/17 08:13:19;;;;;;;30.50;11.80;;;;;;;4.28;72.69;98746.18;25162;1313;3027012;-66
2022/02/17 08:15:52;;;;;;;30.10;11.80;;;;;;;4.82;70.85;98744.85;25148;1315;3057971;-69
2022/02/17 08:18:41;;;;;;;31.60;13.30;;;;;;;5.12;69.33;98744.77;25130;1313;3049908;-74
2022/02/17 08:21:11;;;;;;;32.70;13.50;;;;;;;5.17;68.85;98738.81;25157;1313;3026861;-73
2022/02/17 08:23:43;;;;;;;28.80;13.30;;;;;;;5.04;69.09;98732.67;25164;1313;3026680;-70
2022/02/17 08:26:12;;;;;;;30.40;14.30;;;;;;;5.03;69.25;98727.35;25136;1313;3027026;-65
2022/02/17 08:28:43;;;;;;;27.20;12.70;;;;;;;4.94;69.61;98731.08;25258;1313;3053844;-70
2022/02/17 08:31:12;;;;;;;28.90;13.10;;;;;;;4.89;69.64;98713.62;25139;1314;3027087;-68
2022/02/17 08:33:41;;;;;;;30.60;13.40;;;;;;;4.86;69.97;98722.43;25131;1313;3026771;-72
2022/02/17 08:36:12;;;;;;;28.90;13.60;;;;;;;4.82;69.99;98721.80;25159;1313;3053104;-67
2022/02/17 08:38:43;;;;;;;34.10;15.90;;;;;;;4.77;69.84;98711.25;25160;1313;3027128;-68
2022/02/17 08:41:13;;;;;;;31.40;16.20;;;;;;;4.67;70.21;98713.29;25194;1313;3026733;-69
2022/02/17 08:43:42;;;;;;;30.10;13.90;;;;;;;4.72;69.91;98706.31;25079;1313;3027123;-68
2022/02/17 08:46:11;;;;;;;33.80;14.90;;;;;;;4.76;69.86;98692.42;25099;1314;3026493;-67
2022/02/17 08:48:40;;;;;;;30.50;15.40;;;;;;;4.89;69.44;98684.46;25026;1313;3070314;-66
2022/02/17 08:51:09;;;;;;;37.30;15.80;;;;;;;4.95;69.01;98685.91;25130;1313;3029305;-67
2022/02/17 08:53:38;;;;;;;43.90;17.20;;;;;;;5.11;68.24;98679.57;25215;1313;3049756;-67
2022/02/17 08:56:08;;;;;;;44.20;17.10;;;;;;;5.17;68.07;98676.29;25117;1316;3027084;-67
2022/02/17 08:58:37;;;;;;;32.60;15.50;;;;;;;5.40;67.92;98672.86;25123;1313;3027598;-71
2022/02/17 09:01:06;;;;;;;36.30;15.50;;;;;;;5.36;67.09;98667.89;25182;1313;3053207;-70
2022/02/17 09:03:36;;;;;;;40.80;17.10;;;;;;;5.42;66.55;98662.70;25100;1313;3026560;-71
2022/02/17 09:06:05;;;;;;;29.50;14.30;;;;;;;5.52;66.13;98656.08;25104;1313;3026922;-70
2022/02/17 09:08:34;;;;;;;37.60;15.10;;;;;;;5.65;65.45;98648.27;25173;1313;3027157;-68
2022/02/17 09:11:04;;;;;;;41.40;16.50;;;;;;;5.75;65.02;98649.46;25116;1313;3026830;-67
2022/02/17 09:13:34;;;;;;;38.80;15.60;;;;;;;5.79;64.76;98652.90;25130;1313;3048726;-69
2022/02/17 09:16:03;;;;;;;38.30;13.40;;;;;;;5.79;64.33;98645.47;25130;1314;3026941;-70
2022/02/17 09:18:33;;;;;;;34.50;14.40;;;;;;;5.77;64.36;98644.30;25101;1312;3026726;-70
2022/02/17 09:21:17;;;;;;;29.70;11.90;;;;;;;5.71;64.07;98630.05;25158;1313;3059135;-69
2022/02/17 09:24:06;;;;;;;31.90;13.00;;;;;;;5.84;63.47;98621.38;25131;1313;3049795;-73
2022/02/17 09:26:36;;;;;;;24.50;12.80;;;;;;;5.99;63.38;98615.66;25116;1313;3026645;-70
2022/02/17 09:29:06;;;;;;;27.10;13.10;;;;;;;6.13;62.32;98609.52;25091;1314;3054559;-68
2022/02/17 09:31:35;;;;;;;27.80;12.30;;;;;;;6.16;62.17;98609.90;25136;1313;3026477;-70
2022/02/17 09:34:07;;;;;;;31.20;13.90;;;;;;;6.13;61.88;98605.56;25181;1313;3027182;-69
2022/02/17 09:36:36;;;;;;;28.00;12.90;;;;;;;6.27;61.64;98602.48;25153;1313;3028767;-71
2022/02/17 09:39:07;;;;;;;30.10;13.00;;;;;;;6.21;61.44;98591.92;25143;1313;3026213;-69
2022/02/17 09:41:36;;;;;;;27.20;12.80;;;;;;;6.04;62.06;98599.78;25147;1313;3026736;-71
2022/02/17 09:44:08;;;;;;;31.00;12.90;;;;;;;6.13;61.83;98581.56;25157;1314;3026872;-71
2022/02/17 09:46:41;;;;;;;27.50;12.50;;;;;;;6.22;61.65;98588.17;25171;1313;3027955;-69
2022/02/17 09:49:13;;;;;;;27.30;12.30;;;;;;;6.14;61.77;98585.66;25090;1315;3027055;-72
2022/02/17 09:51:43;;;;;;;29.30;12.50;;;;;;;6.06;62.40;98588.52;25142;1316;3026681;-68
2022/02/17 09:54:13;;;;;;;26.50;13.20;;;;;;;6.09;62.33;98582.67;25158;1313;3026892;-66
2022/02/17 09:56:42;;;;;;;29.50;14.80;;;;;;;6.09;62.53;98582.49;25142;1313;3027148;-67
2022/02/17 09:59:11;;;;;;;28.00;13.00;;;;;;;6.07;63.00;98576.83;25132;1313;3026556;-67
2022/02/17 10:02:00;;;;;;;31.50;14.20;;;;;;;6.19;62.88;98566.63;25129;1313;3052308;-72
2022/02/17 10:04:30;;;;;;;25.20;12.50;;;;;;;6.21;62.63;98563.02;25120;1316;3052024;-67
2022/02/17 10:07:03;;;;;;;29.90;14.60;;;;;;;6.15;62.58;98546.64;25098;1313;3026377;-69
2022/02/17 10:09:47;;;;;;;27.20;13.30;;;;;;;6.12;62.69;98538.52;25124;1313;3026448;-73
2022/02/17 10:12:17;;;;;;;28.30;13.00;;;;;;;6.16;63.03;98528.87;25148;1313;3052201;-71
2022/02/17 10:14:47;;;;;;;28.90;13.70;;;;;;;6.29;62.83;98514.75;25151;1313;3026891;-68
2022/02/17 10:17:16;;;;;;;31.70;12.80;;;;;;;6.31;62.93;98506.77;25053;1316;3026793;-71
2022/02/17 10:19:50;;;;;;;29.00;13.30;;;;;;;6.45;63.02;98494.51;25142;1313;3026693;-70
2022/02/17 10:22:30;;;;;;;31.70;13.30;;;;;;;6.30;63.68;98490.70;25178;1313;3051875;-68
2022/02/17 10:25:00;;;;;;;30.20;12.10;;;;;;;6.32;63.53;98481.70;25128;1313;3058703;-69
2022/02/17 10:27:32;;;;;;;33.90;12.70;;;;;;;6.46;63.56;98464.17;25109;1313;3026305;-69
2022/02/17 10:30:02;;;;;;;32.00;14.30;;;;;;;6.46;63.51;98462.98;25159;1313;3026403;-67
2022/02/17 10:32:31;;;;;;;29.70;13.00;;;;;;;6.51;63.19;98460.23;25127;1313;3030693;-72
2022/02/17 10:35:12;;;;;;;27.50;12.60;;;;;;;6.34;63.46;98463.52;25176;1313;3026745;-72
2022/02/17 10:37:54;;;;;;;30.60;13.10;;;;;;;6.29;63.53;98448.64;25156;1313;3049495;-71
2022/02/17 10:40:33;;;;;;;31.80;13.90;;;;;;;6.32;63.47;98438.75;25100;1312;3054875;-68
2022/02/17 10:43:10;;;;;;;29.60;12.70;;;;;;;6.50;62.90;98440.45;25209;1313;3055437;-70
2022/02/17 10:45:41;;;;;;;26.90;11.60;;;;;;;6.59;62.05;98439.04;25087;1314;3056696;-72
2022/02/17 10:48:17;;;;;;;31.10;11.70;;;;;;;6.67;61.88;98434.40;25125;1315;3026409;-68
2022/02/17 10:51:15;;;;;;;29.90;12.70;;;;;;;6.76;61.32;98439.04;25162;1313;3056552;-72
2022/02/17 10:53:57;;;;;;;32.80;13.30;;;;;;;6.80;61.38;98439.14;25068;1313;3051816;-73
2022/02/17 10:56:30;;;;;;;33.20;12.20;;;;;;;6.76;61.77;98431.75;25128;1313;3070983;-70
2022/02/17 10:59:00;;;;;;;28.80;12.30;;;;;;;6.91;61.57;98417.77;25205;1313;3026729;-68
2022/02/17 11:01:29;;;;;;;31.90;13.00;;;;;;;6.94;61.47;98413.74;25127;1313;3026380;-69
2022/02/17 11:04:00;;;;;;;27.00;12.20;;;;;;;6.93;61.45;98409.96;25172;1313;3027351;-69
2022/02/17 11:06:30;;;;;;;29.40;10.80;;;;;;;7.16;61.20;98397.55;25102;1314;3049089;-72
2022/02/17 11:08:59;;;;;;;23.40;10.80;;;;;;;7.27;60.71;98392.16;25152;1316;3029851;-70
2022/02/17 11:11:27;;;;;;;26.60;11.50;;;;;;;7.26;60.05;98393.65;25091;1316;3067513;-68
2022/02/17 11:13:56;;;;;;;32.40;11.00;;;;;;;7.24;60.25;98390.30;25168;1313;3027644;-73
2022/02/17 11:16:45;;;;;;;29.80;12.20;;;;;;;7.22;60.13;98389.17;25117;1316;3056005;-72
2022/02/17 11:19:14;;;;;;;29.60;11.00;;;;;;;7.28;60.04;98386.92;25147;1313;3029816;-71
2022/02/17 11:21:43;;;;;;;33.30;12.00;;;;;;;7.29;59.40;98375.88;25088;1316;3054494;-70
2022/02/17 11:24:13;;;;;;;27.00;11.50;;;;;;;7.32;59.12;98375.83;25170;1313;3026347;-75
2022/02/17 11:26:42;;;;;;;20.80;10.60;;;;;;;7.30;59.10;98367.41;25096;1313;3026326;-69
2022/02/17 11:29:36;;;;;;;24.40;12.00;;;;;;;7.36;59.00;98361.61;25173;1313;3026598;-69
2022/02/17 11:32:06;;;;;;;31.90;11.40;;;;;;;7.27;58.93;98354.71;25148;1313;3053691;-71
2022/02/17 11:34:43;;;;;;;26.10;10.30;;;;;;;7.43;58.33;98350.54;25119;1313;3026412;-70
2022/02/17 11:37:28;;;;;;;24.60;11.00;;;;;;;7.43;57.90;98346.55;25154;1316;3048508;-70